createdAt,value
2016-06-06T08:40:43.949Z,26.76
2016-06-06T08:41:44.858Z,26.91
2016-06-06T08:42:44.845Z,26.94
2016-06-06T08:43:44.973Z,27.01
2016-06-06T08:44:44.835Z,27.08
2016-06-06T08:45:44.822Z,27.16
2016-06-06T08:46:44.590Z,27.23
2016-06-06T08:47:44.577Z,27.3
2016-06-06T08:48:44.721Z,27.42
2016-06-06T08:49:44.771Z,27.41
2016-06-06T08:50:46.898Z,27.48
2016-06-06T08:51:45.479Z,27.57
2016-06-06T08:52:44.857Z,27.61
2016-06-06T08:53:44.827Z,27.49
2016-06-06T08:54:44.112Z,27.64
2016-06-06T08:55:44.068Z,27.68
2016-06-06T08:56:43.992Z,27.71
2016-06-06T08:57:44.713Z,27.84
2016-06-06T08:58:44.653Z,27.84
2016-06-06T08:59:44.954Z,27.89
2016-06-06T09:00:44.425Z,27.93
2016-06-06T09:01:48.256Z,28.06
2016-06-06T09:02:45.446Z,28.14
2016-06-06T09:03:44.901Z,28.05
2016-06-06T09:04:43.436Z,28.23
2016-06-06T09:05:45.360Z,28.26
2016-06-06T09:06:44.284Z,28.35
2016-06-06T09:07:44.178Z,28.35
2016-06-06T09:08:43.852Z,28.38
2016-06-06T09:09:44.028Z,28.24
2016-06-06T09:10:44.483Z,28.33
2016-06-06T09:11:44.173Z,28.35
2016-06-06T09:12:44.317Z,28.38
2016-06-06T09:13:44.210Z,28.38
2016-06-06T09:14:45.072Z,28.39
2016-06-06T09:15:44.308Z,28.45
2016-06-06T09:16:43.889Z,28.46
2016-06-06T09:17:45.017Z,28.54
2016-06-06T09:18:43.849Z,28.41
2016-06-06T09:19:43.491Z,28.48
2016-06-06T09:20:45.291Z,28.46
2016-06-06T09:21:44.310Z,28.55
2016-06-06T09:22:44.421Z,28.55
2016-06-06T09:23:45.846Z,28.54
2016-06-06T09:24:44.568Z,28.63
2016-06-06T09:25:44.523Z,28.58
2016-06-06T09:26:44.557Z,28.61
2016-06-06T09:27:43.857Z,28.61
2016-06-06T09:29:40.971Z,28.68
2016-06-06T09:30:40.052Z,28.8
2016-06-06T09:31:40.039Z,28.85
2016-06-06T09:32:40.651Z,28.85
2016-06-06T09:33:40.998Z,28.7
2016-06-06T09:36:04.975Z,29.54
2016-06-06T09:37:04.459Z,30.28
2016-06-06T09:38:03.853Z,31.04
2016-06-06T09:39:03.714Z,31.75
2016-06-06T09:40:03.639Z,32.68
2016-06-06T09:41:03.892Z,33.59
2016-06-06T09:42:03.582Z,34.15
2016-06-06T09:43:04.147Z,34.52
2016-06-06T09:44:03.509Z,35.02
2016-06-06T09:45:03.480Z,35.74
2016-06-06T09:46:04.156Z,36.44
2016-06-06T09:47:03.580Z,36.83
2016-06-06T09:48:03.380Z,37.14
2016-06-06T09:49:04.194Z,37.53
2016-06-06T09:50:02.853Z,37.96
2016-06-06T09:51:02.887Z,38.59
2016-06-06T09:52:03.358Z,39.19
2016-06-06T09:53:02.861Z,39.84
2016-06-06T09:54:02.911Z,40.24
2016-06-06T09:55:02.914Z,40.38
2016-06-06T09:56:03.010Z,40.75
2016-06-06T09:57:03.029Z,41.16
2016-06-06T09:58:03.063Z,41.52
2016-06-06T09:59:04.456Z,41.95
2016-06-06T10:00:04.021Z,42.08
2016-06-06T10:01:03.462Z,42.28
2016-06-06T10:02:04.308Z,42.49
2016-06-06T10:03:03.107Z,42.63
2016-06-06T10:04:03.048Z,42.85
2016-06-06T10:05:04.409Z,43.23
2016-06-06T10:06:03.084Z,42.89
2016-06-06T10:07:03.540Z,42.81
2016-06-06T10:08:03.027Z,42.88
2016-06-06T10:09:03.514Z,42.98
2016-06-06T10:10:04.751Z,42.73
2016-06-06T10:11:03.238Z,42.78
2016-06-06T10:12:02.945Z,42.47
2016-06-06T10:13:15.480Z,42.67
2016-06-06T10:14:15.031Z,42.82
2016-06-06T10:15:05.000Z,42.7
2016-06-06T10:16:03.080Z,42.98
2016-06-06T10:17:03.145Z,42.81
2016-06-06T10:18:03.507Z,42.44
2016-06-06T10:19:03.275Z,42.3
2016-06-06T10:20:03.184Z,42.33
2016-06-06T10:21:03.531Z,42.73
2016-06-06T10:22:03.205Z,42.92
2016-06-06T10:23:02.974Z,43.08
2016-06-06T10:24:03.602Z,42.81
2016-06-06T10:25:03.072Z,42.35
2016-06-06T10:26:03.013Z,42.26
2016-06-06T10:27:03.266Z,42.41
2016-06-06T10:28:03.955Z,42.52
2016-06-06T10:29:04.301Z,42.36
2016-06-06T10:30:03.461Z,42.33
2016-06-06T10:31:04.151Z,42.78
2016-06-06T10:32:03.248Z,42.64
2016-06-06T10:33:03.359Z,42.3
2016-06-06T10:34:03.846Z,41.94
2016-06-06T10:35:04.115Z,41.99
2016-06-06T10:36:03.118Z,42.15
2016-06-06T10:37:04.808Z,42.49
2016-06-06T10:38:03.014Z,42.76
2016-06-06T10:39:04.453Z,42.26
2016-06-06T10:40:02.957Z,42.49
2016-06-06T10:41:03.084Z,42.85
2016-06-06T10:42:03.212Z,42.94
2016-06-06T10:43:03.183Z,43.13
2016-06-06T10:44:05.186Z,43.1
2016-06-06T10:45:03.142Z,42.73
2016-06-06T10:46:03.379Z,42.71
2016-06-06T10:47:03.006Z,42.85
2016-06-06T10:48:03.056Z,42.35
2016-06-06T10:49:03.794Z,41.83
2016-06-06T10:50:03.311Z,41.37
2016-06-06T10:51:03.267Z,41.44
2016-06-06T10:52:03.020Z,40.93
2016-06-06T10:53:04.336Z,40.98
2016-06-06T10:54:02.994Z,40.84
2016-06-06T10:55:03.560Z,41
2016-06-06T10:56:03.047Z,41.13
2016-06-06T10:57:03.658Z,41.5
2016-06-06T10:58:03.240Z,41.91
2016-06-06T10:59:03.460Z,42.25
2016-06-06T11:00:04.041Z,42.41
2016-06-06T11:01:03.357Z,42.14
2016-06-06T11:02:03.079Z,41.61
2016-06-06T11:03:03.190Z,41.26
2016-06-06T11:04:03.209Z,40.82
2016-06-06T11:05:03.290Z,40.59
2016-06-06T11:06:03.152Z,40.59
2016-06-06T11:07:02.968Z,40.94
2016-06-06T11:08:03.345Z,41.16
2016-06-06T11:09:06.284Z,41.31
2016-06-06T11:10:03.303Z,41.87
2016-06-06T11:11:03.603Z,42.41
2016-06-06T11:12:03.684Z,42.61
2016-06-06T11:13:03.201Z,42.76
2016-06-06T11:14:03.845Z,43.24
2016-06-06T11:15:03.567Z,43.46
2016-06-06T11:16:04.522Z,43.7
2016-06-06T11:17:03.728Z,43.66
2016-06-06T11:18:06.949Z,43.54
2016-06-06T11:19:03.343Z,43.97
2016-06-06T11:20:03.486Z,43.83
2016-06-06T11:21:03.161Z,43.99
2016-06-06T11:22:04.617Z,44.3
2016-06-06T11:23:03.478Z,44.92
2016-06-06T11:24:03.497Z,44.95
2016-06-06T11:25:04.250Z,44.91
2016-06-06T11:26:03.143Z,44.83
2016-06-06T11:27:03.364Z,44.85
2016-06-06T11:28:04.164Z,44.95
2016-06-06T11:29:06.088Z,44.76
2016-06-06T11:30:03.982Z,44.72
2016-06-06T11:31:03.454Z,44.78
2016-06-06T11:32:03.456Z,44.81
2016-06-06T11:33:03.334Z,45.1
2016-06-06T11:34:03.133Z,45.13
2016-06-06T11:35:03.526Z,45
2016-06-06T11:36:03.513Z,45.4
2016-06-06T11:37:03.595Z,46.03
2016-06-06T11:38:03.801Z,46.26
2016-06-06T11:39:03.381Z,46.3
2016-06-06T11:40:03.665Z,46.05
2016-06-06T11:41:04.573Z,45.43
2016-06-06T11:42:04.483Z,45.38
2016-06-06T11:43:03.611Z,44.78
2016-06-06T11:44:03.692Z,44.64
2016-06-06T11:45:03.100Z,44.95
2016-06-06T11:46:03.619Z,44.91
2016-06-06T11:47:03.590Z,45.06
2016-06-06T11:48:03.124Z,44.91
2016-06-06T11:49:03.111Z,45.13
2016-06-06T11:50:03.473Z,45.47
2016-06-06T11:51:03.492Z,45.85
2016-06-06T11:52:03.275Z,46.23
2016-06-06T11:53:03.247Z,46.64
2016-06-06T11:54:03.453Z,46.55
2016-06-06T11:55:03.564Z,46.89
2016-06-06T11:56:03.224Z,47.36
2016-06-06T11:57:07.055Z,46.89
2016-06-06T11:58:03.229Z,46.36
2016-06-06T11:59:05.122Z,45.67
2016-06-06T12:00:03.437Z,44.91
2016-06-06T12:01:03.597Z,44.85
2016-06-06T12:02:03.318Z,44.45
2016-06-06T12:03:04.226Z,43.96
2016-06-06T12:04:03.558Z,43.57
2016-06-06T12:05:03.358Z,43.59
2016-06-06T12:06:03.735Z,43.47
2016-06-06T12:07:04.112Z,43.92
2016-06-06T12:08:05.147Z,44.27
2016-06-06T12:09:04.384Z,44.11
2016-06-06T12:10:03.589Z,44.05
2016-06-06T12:11:04.296Z,43.95
2016-06-06T12:12:05.407Z,44.12
2016-06-06T12:13:04.926Z,44.43
2016-06-06T12:14:05.960Z,44.91
2016-06-06T12:15:05.431Z,45.32
2016-06-06T12:16:06.121Z,45.72
2016-06-06T12:17:03.265Z,45.56
2016-06-06T12:18:04.423Z,44.88
2016-06-06T12:19:03.723Z,45.02
2016-06-06T12:20:04.773Z,45.03
2016-06-06T12:21:03.244Z,44.88
2016-06-06T12:22:03.512Z,44.66
2016-06-06T12:23:07.250Z,44.84
2016-06-06T12:24:10.064Z,45.25
2016-06-06T12:25:03.489Z,45.64
2016-06-06T12:26:03.304Z,46.16
2016-06-06T12:27:04.447Z,46.29
2016-06-06T12:28:03.857Z,46.59
2016-06-06T12:29:03.859Z,47.17
2016-06-06T12:30:03.424Z,47.63
2016-06-06T12:31:03.427Z,47.77
2016-06-06T12:32:03.258Z,47.81
2016-06-06T12:33:03.777Z,47.97
2016-06-06T12:34:03.513Z,48.18
2016-06-06T12:35:03.593Z,48.21
2016-06-06T12:36:03.566Z,48.18
2016-06-06T12:37:03.396Z,47.93
2016-06-06T12:38:03.571Z,47.8
2016-06-06T12:39:03.245Z,47.61
2016-06-06T12:40:05.029Z,47.7
2016-06-06T12:41:03.501Z,47.62
2016-06-06T12:42:04.348Z,45.88
2016-06-06T12:43:04.443Z,43.33
2016-06-06T12:44:04.541Z,41.31
2016-06-06T12:45:05.231Z,39.65
2016-06-06T13:04:39.081Z,28.94
2016-06-06T13:05:39.694Z,30.06
2016-06-06T13:06:39.337Z,31.18
2016-06-06T13:07:39.635Z,32.34
2016-06-06T13:08:39.546Z,33.39
2016-06-06T13:09:39.173Z,34.02
2016-06-06T13:10:38.066Z,33.28
2016-06-06T13:11:40.225Z,32.72
2016-06-06T13:12:39.024Z,32.43
2016-06-06T13:13:39.402Z,31.82
2016-06-06T13:14:39.702Z,31.49
2016-06-06T13:17:35.787Z,31.28
2016-06-06T13:18:02.147Z,30.85
2016-06-06T13:19:01.775Z,30.07
2016-06-06T13:20:01.653Z,30.03
2016-06-06T13:21:05.453Z,30
2016-06-06T13:22:05.064Z,30.49
2016-06-06T13:23:06.176Z,30.69
2016-06-06T13:24:03.836Z,31
2016-06-06T13:25:04.260Z,30.91
2016-06-06T13:26:02.559Z,31.07
2016-06-06T13:27:02.844Z,31.07
2016-06-06T13:28:07.127Z,30.99
2016-06-06T13:29:03.552Z,31
2016-06-06T13:30:05.680Z,30.91
2016-06-06T13:31:02.776Z,30.73
2016-06-06T13:32:03.044Z,30.64
2016-06-06T13:33:03.953Z,30.45
2016-06-06T13:34:02.815Z,30.4
2016-06-06T13:35:03.302Z,30.14
2016-06-06T13:36:03.243Z,30.06
2016-06-06T13:37:03.027Z,29.95
2016-06-06T13:38:02.920Z,29.75
2016-06-06T13:39:03.126Z,29.73
2016-06-06T13:40:03.004Z,29.6
2016-06-06T13:41:02.615Z,29.45
2016-06-06T13:42:02.837Z,29.39
2016-06-06T13:43:02.761Z,29.33
2016-06-06T13:44:02.796Z,29.29
2016-06-06T13:45:03.190Z,29.32
2016-06-06T13:46:03.910Z,29.18
2016-06-06T13:47:05.850Z,29.18
2016-06-06T13:48:03.823Z,29.08
2016-06-06T13:49:03.168Z,29.11
2016-06-06T13:50:02.983Z,29.02
2016-06-06T13:51:03.673Z,28.95
2016-06-06T13:52:03.301Z,28.98
2016-06-06T13:53:02.867Z,28.91
2016-06-06T13:54:03.400Z,28.91
2016-06-06T13:55:03.450Z,29.06
2016-06-06T13:56:02.859Z,29.15
2016-06-06T13:57:04.580Z,29.14
2016-06-06T13:58:03.052Z,29.08
2016-06-06T13:59:03.491Z,28.94
2016-06-06T14:00:03.307Z,28.78
2016-06-06T14:01:03.325Z,28.65
2016-06-06T14:02:03.813Z,28.58
2016-06-06T14:03:04.956Z,28.51
2016-06-06T14:04:03.255Z,28.46
2016-06-06T14:05:04.821Z,28.26
2016-06-06T14:06:05.574Z,28.01
2016-06-06T14:07:03.702Z,27.84
2016-06-06T14:08:03.969Z,27.83
2016-06-06T14:09:04.472Z,27.81
2016-06-06T14:10:04.037Z,27.64
2016-06-06T14:11:04.587Z,27.62
2016-06-06T14:12:03.418Z,27.65
2016-06-06T14:13:04.686Z,27.69
2016-06-06T14:14:03.313Z,27.76
2016-06-06T14:15:03.613Z,27.76
2016-06-06T14:16:03.523Z,27.76
2016-06-06T14:17:03.526Z,27.69
2016-06-06T14:18:03.746Z,27.51
2016-06-06T14:19:04.405Z,27.45
2016-06-06T14:20:03.314Z,27.36
2016-06-06T14:21:04.332Z,27.31
2016-06-06T14:22:03.116Z,27.26
2016-06-06T14:23:03.134Z,27.23
2016-06-06T14:24:05.387Z,27.12
2016-06-06T14:25:03.172Z,27
2016-06-06T14:26:03.706Z,26.99
2016-06-06T14:27:04.817Z,27
2016-06-06T14:28:03.413Z,27.08
2016-06-06T14:29:03.526Z,27.04
2016-06-06T14:30:04.622Z,27.15
2016-06-06T14:31:03.108Z,27.16
2016-06-06T14:32:03.425Z,27.21
2016-06-06T14:33:03.521Z,27.13
2016-06-06T14:34:03.227Z,27.05
2016-06-06T14:35:03.541Z,27.08
2016-06-06T14:36:02.591Z,26.99
2016-06-06T14:37:02.844Z,26.93
2016-06-06T14:38:03.191Z,26.91
2016-06-06T14:39:05.849Z,26.86
2016-06-06T14:40:04.666Z,26.87
2016-06-06T14:41:03.277Z,26.86
2016-06-06T14:42:03.201Z,26.84
2016-06-06T14:43:03.813Z,26.86
2016-06-06T14:44:03.457Z,26.87
2016-06-06T14:45:03.788Z,26.89
2016-06-06T14:46:03.634Z,26.87
2016-06-06T14:47:03.340Z,26.78
2016-06-06T14:48:03.092Z,26.97
2016-06-06T14:49:03.471Z,26.94
2016-06-06T14:50:03.801Z,27.16
2016-06-06T14:51:03.631Z,27.19
2016-06-06T14:52:03.619Z,27.3
2016-06-06T14:53:04.934Z,27.36
2016-06-06T14:54:03.811Z,27.16
2016-06-06T14:55:03.345Z,27.01
2016-06-06T14:56:04.176Z,26.94
2016-06-06T14:57:04.570Z,26.99
2016-06-06T14:58:03.853Z,27.01
2016-06-06T14:59:03.748Z,26.94
2016-06-06T15:00:03.937Z,26.91
2016-06-06T15:01:05.144Z,26.89
2016-06-06T15:03:59.667Z,26.74
2016-06-06T15:04:28.450Z,26.75
2016-06-06T15:05:29.594Z,26.74
2016-06-06T15:06:29.425Z,26.72
2016-06-06T15:07:29.787Z,26.64
2016-06-06T15:08:29.666Z,26.59
2016-06-06T15:09:29.496Z,26.6
2016-06-06T15:10:29.232Z,26.49
2016-06-06T15:11:29.657Z,26.47
2016-06-06T15:12:29.019Z,26.52
2016-06-06T15:13:28.396Z,26.47
2016-06-06T15:14:29.415Z,26.59
2016-06-06T15:15:30.215Z,26.67
2016-06-06T15:16:29.404Z,26.69
2016-06-06T15:17:29.720Z,26.74
2016-06-06T15:18:29.473Z,26.76
2016-06-06T15:19:29.413Z,26.74
2016-06-06T15:20:29.823Z,26.69
2016-06-06T15:21:29.950Z,26.75
2016-06-06T15:22:29.156Z,26.74
2016-06-06T15:23:29.424Z,26.87
2016-06-06T15:24:28.974Z,26.81
2016-06-06T15:25:29.242Z,26.81
2016-06-06T15:26:29.463Z,26.87
2016-06-06T15:27:29.747Z,26.78
2016-06-06T15:28:29.594Z,26.78
2016-06-06T15:29:41.253Z,26.78
2016-06-06T15:30:30.068Z,26.74
2016-06-06T15:31:29.398Z,26.74
2016-06-06T15:32:29.102Z,26.75
2016-06-06T15:33:29.357Z,26.63
2016-06-06T15:34:29.611Z,26.61
2016-06-06T15:35:29.550Z,26.61
2016-06-06T15:36:29.428Z,26.61
2016-06-06T15:37:29.743Z,26.57
2016-06-06T15:38:29.621Z,26.63
2016-06-06T15:39:29.464Z,26.59
2016-06-06T15:40:28.514Z,26.52
2016-06-06T15:41:29.251Z,26.63
2016-06-06T15:42:29.597Z,26.57
2016-06-06T15:43:29.271Z,26.59
2016-06-06T15:44:28.774Z,26.52
2016-06-06T15:45:30.405Z,26.57
2016-06-06T15:46:29.311Z,26.57
2016-06-06T15:47:29.736Z,26.71
2016-06-06T15:48:28.941Z,26.63
2016-06-06T15:49:30.041Z,26.63
2016-06-06T15:50:29.307Z,26.74
2016-06-06T15:51:28.825Z,26.86
2016-06-06T15:52:28.359Z,26.71
2016-06-06T15:53:29.989Z,26.76
2016-06-06T15:54:29.582Z,26.78
2016-06-06T15:55:29.476Z,26.82
2016-06-06T15:56:29.479Z,26.78
2016-06-06T15:57:29.262Z,26.81
2016-06-06T15:58:29.797Z,26.72
2016-06-06T15:59:30.506Z,26.89
2016-06-06T16:00:29.678Z,26.78
2016-06-06T16:01:28.742Z,26.84
2016-06-06T16:02:28.589Z,26.86
2016-06-06T16:03:28.217Z,26.93
2016-06-06T16:04:28.953Z,26.87
2016-06-06T16:05:28.675Z,26.99
2016-06-06T16:06:29.147Z,27.01
2016-06-06T16:07:28.977Z,26.97
2016-06-06T16:08:28.386Z,26.84
2016-06-06T16:09:28.530Z,26.87
2016-06-06T16:10:28.455Z,26.99
2016-06-06T16:11:28.878Z,27.05
2016-06-06T16:12:28.756Z,26.97
2016-06-06T16:13:28.463Z,26.99
2016-06-06T16:14:29.059Z,26.94
2016-06-06T16:15:28.827Z,26.99
2016-06-06T16:16:28.236Z,26.99
2016-06-06T16:17:28.723Z,27.05
2016-06-06T16:18:28.726Z,27
2016-06-06T16:19:28.572Z,26.99
2016-06-06T16:20:28.685Z,27.05
2016-06-06T16:21:29.843Z,27.06
2016-06-06T16:22:29.690Z,26.97
2016-06-06T16:23:29.052Z,27.11
2016-06-06T16:24:29.820Z,27.01
2016-06-06T16:25:29.057Z,27.05
2016-06-06T16:26:29.591Z,26.94
2016-06-06T16:27:29.921Z,27.05
2016-06-06T16:28:29.393Z,27.05
2016-06-06T16:29:29.927Z,26.99
2016-06-06T16:30:29.961Z,27.01
2016-06-06T16:31:29.511Z,27.08
2016-06-06T16:32:29.639Z,27.01
2016-06-06T16:33:29.234Z,27.06
2016-06-06T16:34:29.425Z,27.06
2016-06-06T16:35:29.647Z,27
2016-06-06T16:36:28.821Z,26.99
2016-06-06T16:37:28.777Z,27.04
2016-06-06T16:38:28.701Z,26.97
2016-06-06T16:39:28.189Z,27.01
2016-06-06T16:40:28.816Z,27.08
2016-06-06T16:41:28.569Z,27.01
2016-06-06T16:42:28.791Z,27.06
2016-06-06T16:43:29.219Z,27.04
2016-06-06T16:44:28.727Z,27.09
2016-06-06T16:45:30.234Z,27.04
2016-06-06T16:46:29.352Z,27.01
2016-06-06T16:47:30.063Z,27.01
2016-06-06T16:48:30.037Z,27.01
2016-06-06T16:49:29.775Z,27.09
2016-06-06T16:50:29.544Z,27.01
2016-06-06T16:51:29.189Z,27.05
2016-06-06T16:52:29.443Z,26.96
2016-06-06T16:53:29.604Z,27.04
2016-06-06T16:54:29.107Z,26.94
2016-06-06T16:55:29.954Z,27.06
2016-06-06T16:56:29.426Z,27
2016-06-06T16:57:29.508Z,27
2016-06-06T16:58:29.199Z,26.91
2016-06-06T16:59:29.873Z,27
2016-06-06T17:00:29.611Z,27.06
2016-06-06T17:01:29.598Z,26.97
2016-06-06T17:02:29.508Z,27.01
2016-06-06T17:03:30.057Z,26.93
2016-06-06T17:04:28.731Z,26.94
2016-06-06T17:05:29.219Z,26.99
2016-06-06T17:06:29.439Z,27.05
2016-06-06T17:07:29.006Z,26.93
2016-06-06T17:08:30.070Z,26.87
2016-06-06T17:09:29.511Z,27
2016-06-06T17:10:29.280Z,26.94
2016-06-06T17:11:29.688Z,26.87
2016-06-06T17:12:29.769Z,26.99
2016-06-06T17:13:29.506Z,27
2016-06-06T17:14:30.461Z,27.04
2016-06-06T17:15:30.511Z,26.9
2016-06-06T17:16:29.842Z,26.91
2016-06-06T17:17:30.266Z,26.91
2016-06-06T17:18:29.597Z,26.93
2016-06-06T17:19:29.897Z,26.87
2016-06-06T17:20:29.618Z,26.91
2016-06-06T17:21:29.965Z,26.94
2016-06-06T17:22:29.733Z,26.91
2016-06-06T17:23:29.565Z,26.84
2016-06-06T17:24:29.676Z,26.89
2016-06-06T17:25:29.882Z,26.89
2016-06-06T17:26:29.697Z,26.82
2016-06-06T17:27:29.106Z,26.89
2016-06-06T17:28:30.015Z,26.89
2016-06-06T17:29:30.001Z,26.84
2016-06-06T17:30:30.459Z,26.94
2016-06-06T17:31:29.648Z,26.91
2016-06-06T17:32:29.525Z,26.87
2016-06-06T17:33:30.076Z,26.84
2016-06-06T17:34:29.859Z,26.86
2016-06-06T17:35:29.846Z,26.81
2016-06-06T17:36:29.552Z,26.86
2016-06-06T17:37:29.758Z,26.82
2016-06-06T17:38:29.541Z,26.78
2016-06-06T17:39:29.608Z,26.82
2016-06-06T17:40:30.000Z,26.84
2016-06-06T17:41:30.221Z,26.93
2016-06-06T17:42:30.116Z,26.76
2016-06-06T17:43:30.039Z,26.86
2016-06-06T17:44:30.230Z,26.75
2016-06-06T17:45:30.701Z,26.79
2016-06-06T17:46:29.892Z,26.82
2016-06-06T17:47:30.254Z,26.84
2016-06-06T17:48:29.584Z,26.76
2016-06-06T17:49:29.400Z,26.76
2016-06-06T17:50:30.887Z,26.81
2016-06-06T17:51:30.045Z,26.75
2016-06-06T17:52:29.688Z,26.78
2016-06-06T17:53:29.816Z,26.75
2016-06-06T17:54:29.835Z,26.79
2016-06-06T17:55:29.915Z,26.78
2016-06-06T17:56:30.371Z,26.69
2016-06-06T17:57:29.952Z,26.81
2016-06-06T17:58:29.829Z,26.72
2016-06-06T17:59:29.270Z,26.89
2016-06-06T18:00:29.539Z,26.78
2016-06-06T18:01:29.885Z,26.75
2016-06-06T18:02:29.559Z,26.71
2016-06-06T18:03:29.687Z,26.78
2016-06-06T18:04:28.784Z,26.67
2016-06-06T18:05:29.020Z,26.78
2016-06-06T18:06:29.117Z,26.71
2016-06-06T18:07:30.198Z,26.71
2016-06-06T18:08:30.169Z,26.74
2016-06-06T18:09:29.906Z,26.68
2016-06-06T18:10:29.909Z,26.63
2016-06-06T18:11:28.802Z,26.71
2016-06-06T18:12:29.946Z,26.75
2016-06-06T18:13:29.902Z,26.71
2016-06-06T18:14:31.358Z,26.69
2016-06-06T18:15:31.532Z,26.69
2016-06-06T18:16:29.988Z,26.71
2016-06-06T18:17:28.928Z,26.68
2016-06-06T18:18:29.805Z,26.68
2016-06-06T18:19:30.027Z,26.71
2016-06-06T18:20:30.108Z,26.67
2016-06-06T18:21:30.127Z,26.64
2016-06-06T18:22:29.223Z,26.68
2016-06-06T18:23:29.929Z,26.64
2016-06-06T18:24:29.884Z,26.59
2016-06-06T18:25:30.341Z,26.67
2016-06-06T18:26:29.248Z,26.64
2016-06-06T18:27:29.704Z,26.63
2016-06-06T18:28:30.098Z,26.61
2016-06-06T18:29:30.538Z,26.63
2016-06-06T18:30:29.884Z,26.61
2016-06-06T18:31:29.794Z,26.71
2016-06-06T18:32:29.859Z,26.53
2016-06-06T18:33:29.705Z,26.67
2016-06-06T18:34:30.051Z,26.63
2016-06-06T18:35:29.789Z,26.64
2016-06-06T18:36:30.057Z,26.56
2016-06-06T18:37:30.138Z,26.63
2016-06-06T18:38:30.047Z,26.56
2016-06-06T18:39:29.737Z,26.56
2016-06-06T18:40:29.864Z,26.6
2016-06-06T18:41:30.086Z,26.6
2016-06-06T18:42:30.058Z,26.59
2016-06-06T18:43:30.357Z,26.56
2016-06-06T18:44:30.392Z,26.56
2016-06-06T18:45:29.488Z,26.5
2016-06-06T18:46:29.913Z,26.61
2016-06-06T18:47:30.211Z,26.6
2016-06-06T18:48:30.293Z,26.56
2016-06-06T18:49:29.967Z,26.54
2016-06-06T18:50:30.173Z,26.6
2016-06-06T18:51:30.144Z,26.53
2016-06-06T18:52:30.257Z,26.56
2016-06-06T18:53:29.666Z,26.61
2016-06-06T18:54:30.090Z,26.49
2016-06-06T18:55:29.498Z,26.56
2016-06-06T18:56:29.033Z,26.53
2016-06-06T18:57:29.895Z,26.49
2016-06-06T18:58:30.226Z,26.5
2016-06-06T18:59:31.010Z,26.54
2016-06-06T19:00:30.434Z,26.53
2016-06-06T19:01:29.702Z,26.45
2016-06-06T19:03:54.007Z,26.56
2016-06-06T19:04:54.088Z,26.45
2016-06-06T19:05:53.997Z,26.5
2016-06-06T19:06:55.328Z,26.54
2016-06-06T19:07:54.409Z,26.53
2016-06-06T19:08:58.239Z,26.57
2016-06-06T19:09:55.664Z,26.5
2016-06-06T19:10:54.417Z,26.47
2016-06-06T19:11:53.826Z,26.56
2016-06-06T19:12:55.156Z,26.5
2016-06-06T19:13:54.300Z,26.5
2016-06-06T19:14:54.411Z,26.44
2016-06-06T19:15:55.197Z,26.5
2016-06-06T19:16:54.230Z,26.53
2016-06-06T19:17:54.217Z,26.49
2016-06-06T19:18:54.438Z,26.42
2016-06-06T19:22:18.150Z,26.5
2016-06-06T19:23:20.137Z,26.45
2016-06-06T19:24:19.640Z,26.5
2016-06-06T19:25:20.048Z,26.37
2016-06-06T19:26:19.691Z,26.41
2016-06-06T19:27:19.663Z,26.42
2016-06-06T19:28:19.821Z,26.39
2016-06-06T19:29:19.856Z,26.45
2016-06-06T19:30:19.734Z,26.52
2016-06-06T19:31:19.799Z,26.41
2016-06-06T19:32:20.004Z,26.49
2016-06-06T19:33:19.585Z,26.45
2016-06-06T19:34:19.838Z,26.38
2016-06-06T19:35:20.465Z,26.38
2016-06-06T19:36:19.625Z,26.44
2016-06-06T19:37:19.565Z,26.45
2016-06-06T19:38:19.115Z,26.45
2016-06-06T19:39:19.648Z,26.49
2016-06-06T19:40:19.558Z,26.42
2016-06-06T19:41:19.779Z,26.39
2016-06-06T19:42:19.766Z,26.41
2016-06-06T19:43:20.222Z,26.44
2016-06-06T19:44:18.209Z,26.45
2016-06-06T19:45:19.805Z,26.39
2016-06-06T19:46:20.214Z,26.41
2016-06-06T19:47:19.920Z,26.52
2016-06-06T19:48:20.016Z,26.44
2016-06-06T19:49:20.472Z,26.47
2016-06-06T19:50:19.646Z,26.42
2016-06-06T19:51:18.555Z,26.41
2016-06-06T19:52:19.793Z,26.42
2016-06-06T19:53:19.577Z,26.44
2016-06-06T19:54:19.766Z,26.39
2016-06-06T19:55:19.785Z,26.38
2016-06-06T19:56:20.226Z,26.37
2016-06-06T19:57:19.025Z,26.41
2016-06-06T19:58:19.809Z,26.34
2016-06-06T19:59:19.734Z,26.34
2016-06-06T20:00:19.611Z,26.37
2016-06-06T20:01:20.035Z,26.35
2016-06-06T20:02:19.945Z,26.38
2016-06-06T20:03:19.884Z,26.34
2016-06-06T20:04:19.965Z,26.45
2016-06-06T20:05:19.360Z,26.35
2016-06-06T20:06:19.642Z,26.37
2016-06-06T20:07:19.771Z,26.32
2016-06-06T20:08:19.758Z,26.37
2016-06-06T20:09:19.901Z,26.37
2016-06-06T20:10:19.778Z,26.34
2016-06-06T20:11:19.984Z,26.37
2016-06-06T20:12:19.894Z,26.38
2016-06-06T20:13:18.614Z,26.35
2016-06-06T20:14:20.008Z,26.34
2016-06-06T20:15:19.948Z,26.32
2016-06-06T20:16:20.029Z,26.34
2016-06-06T20:17:19.750Z,26.32
2016-06-06T20:18:19.972Z,26.27
2016-06-06T20:19:19.756Z,26.32
2016-06-06T20:20:20.118Z,26.27
2016-06-06T20:21:20.106Z,26.34
2016-06-06T20:22:19.983Z,26.27
2016-06-06T20:23:19.829Z,26.22
2016-06-06T20:24:20.129Z,26.34
2016-06-06T20:25:19.663Z,26.34
2016-06-06T20:26:20.118Z,26.34
2016-06-06T20:27:20.246Z,26.41
2016-06-06T20:28:18.593Z,26.34
2016-06-06T20:29:19.815Z,26.34
2016-06-06T20:30:19.973Z,26.35
2016-06-06T20:31:18.616Z,26.24
2016-06-06T20:32:19.901Z,26.2
2016-06-06T20:33:18.951Z,26.26
2016-06-06T20:34:18.844Z,26.23
2016-06-06T20:35:19.659Z,26.32
2016-06-06T20:36:20.051Z,26.24
2016-06-06T20:37:19.804Z,26.27
2016-06-06T20:38:19.698Z,26.37
2016-06-06T20:39:19.950Z,26.37
2016-06-06T20:40:20.047Z,26.24
2016-06-06T20:41:19.768Z,26.31
2016-06-06T20:42:20.146Z,26.26
2016-06-06T20:43:20.445Z,26.24
2016-06-06T20:44:18.417Z,26.38
2016-06-06T20:45:20.044Z,26.34
2016-06-06T20:46:20.297Z,26.37
2016-06-06T20:47:20.128Z,26.31
2016-06-06T20:48:20.397Z,26.32
2016-06-06T20:49:18.883Z,26.23
2016-06-06T20:50:19.949Z,26.31
2016-06-06T20:51:18.857Z,26.37
2016-06-06T20:52:18.204Z,26.26
2016-06-06T20:53:20.441Z,26.27
2016-06-06T20:54:20.022Z,26.35
2016-06-06T20:55:19.930Z,26.32
2016-06-06T20:56:20.246Z,26.23
2016-06-06T20:57:20.186Z,26.22
2016-06-06T20:58:20.283Z,26.32
2016-06-06T20:59:19.020Z,26.24
2016-06-06T21:00:20.335Z,26.24
2016-06-06T21:01:20.541Z,26.3
2016-06-06T21:02:20.013Z,26.15
2016-06-06T21:03:20.125Z,26.32
2016-06-06T21:04:20.298Z,26.27
2016-06-06T21:05:20.973Z,26.31
2016-06-06T21:06:20.352Z,26.3
2016-06-06T21:07:18.917Z,26.24
2016-06-06T21:08:20.215Z,26.27
2016-06-06T21:09:19.062Z,26.3
2016-06-06T21:10:20.050Z,26.22
2016-06-06T21:11:20.178Z,26.24
2016-06-06T21:12:20.164Z,26.24
2016-06-06T21:13:19.183Z,26.26
2016-06-06T21:14:19.967Z,26.23
2016-06-06T21:15:18.939Z,26.11
2016-06-06T21:16:20.269Z,26.19
2016-06-06T21:17:20.412Z,26.26
2016-06-06T21:18:20.024Z,26.16
2016-06-06T21:19:20.137Z,26.12
2016-06-06T21:20:21.372Z,26.19
2016-06-06T21:21:20.250Z,26.12
2016-06-06T21:22:19.050Z,26.15
2016-06-06T21:23:18.944Z,26.19
2016-06-06T21:24:18.790Z,26.09
2016-06-06T21:25:20.246Z,26.24
2016-06-06T21:26:20.311Z,26.11
2016-06-06T21:27:19.158Z,26.15
2016-06-06T21:28:19.191Z,26.16
2016-06-06T21:29:20.085Z,26.16
2016-06-06T21:30:19.307Z,26.2
2016-06-06T21:31:20.465Z,26.11
2016-06-06T21:32:20.640Z,26.2
2016-06-06T21:33:20.564Z,26.17
2016-06-06T21:34:19.098Z,26.19
2016-06-06T21:35:21.163Z,26.17
2016-06-06T21:36:19.385Z,26.17
2016-06-06T21:37:19.247Z,26.11
2016-06-06T21:38:20.265Z,26.17
2016-06-06T21:39:20.299Z,26.15
2016-06-06T21:40:18.802Z,26.17
2016-06-06T21:41:19.164Z,26.09
2016-06-06T21:42:19.120Z,26.15
2016-06-06T21:43:19.059Z,26.07
2016-06-06T21:44:18.016Z,26.04
2016-06-06T21:45:19.144Z,26.12
2016-06-06T21:46:19.271Z,26.15
2016-06-06T21:47:20.524Z,26.11
2016-06-06T21:48:18.995Z,26.11
2016-06-06T21:49:20.576Z,26.11
2016-06-06T21:50:19.141Z,26.04
2016-06-06T21:51:20.425Z,26.11
2016-06-06T21:52:19.163Z,26.09
2016-06-06T21:53:19.494Z,26.03
2016-06-06T21:54:19.605Z,26.16
2016-06-06T21:55:19.467Z,26
2016-06-06T21:56:19.204Z,26.01
2016-06-06T21:57:19.207Z,26.04
2016-06-06T21:58:19.241Z,26.03
2016-06-06T21:59:19.119Z,26.03
2016-06-06T22:00:19.465Z,26.07
2016-06-06T22:01:19.358Z,26.06
2016-06-06T22:02:20.580Z,26.01
2016-06-06T22:03:19.114Z,26.04